createdAt,value
2018-06-27T00:00:57.332Z,31.30
2018-06-27T00:03:26.114Z,31.77
2018-06-27T00:05:55.010Z,27.77
2018-06-27T00:08:24.031Z,29.60
2018-06-27T00:10:52.803Z,33.57
2018-06-27T00:13:21.672Z,27.47
2018-06-27T00:15:50.643Z,25.60
2018-06-27T00:18:19.721Z,28.90
2018-06-27T00:20:48.739Z,24.90
2018-06-27T00:23:17.938Z,27.40
2018-06-27T00:25:46.956Z,33.53
2018-06-27T00:28:15.992Z,32.27
2018-06-27T00:30:45.216Z,27.67
2018-06-27T00:33:14.375Z,28.00
2018-06-27T00:35:43.139Z,28.97
2018-06-27T00:38:15.154Z,29.13
2018-06-27T00:40:44.611Z,32.10
2018-06-27T00:43:14.048Z,25.20
2018-06-27T00:45:43.977Z,28.50
2018-06-27T00:48:12.962Z,28.07
2018-06-27T00:50:41.960Z,31.43
2018-06-27T00:53:10.983Z,29.27
2018-06-27T00:55:39.987Z,31.50
2018-06-27T00:58:08.999Z,27.30
2018-06-27T01:00:38.071Z,26.50
2018-06-27T01:03:07.069Z,23.37
2018-06-27T01:05:36.068Z,28.20
2018-06-27T01:08:05.260Z,29.60
2018-06-27T01:10:34.467Z,31.67
2018-06-27T01:13:03.522Z,26.40
2018-06-27T01:15:32.497Z,23.93
2018-06-27T01:18:01.557Z,28.47
2018-06-27T01:20:30.543Z,23.50
2018-06-27T01:22:59.298Z,29.70
2018-06-27T01:25:28.142Z,29.07
2018-06-27T01:27:56.906Z,26.27
2018-06-27T01:30:25.803Z,30.47
2018-06-27T01:32:54.843Z,29.32
2018-06-27T01:35:23.985Z,24.07
2018-06-27T01:37:52.897Z,24.83
2018-06-27T01:40:22.001Z,26.47
2018-06-27T01:42:51.067Z,27.37
2018-06-27T01:45:20.363Z,25.17
2018-06-27T01:47:49.487Z,31.50
2018-06-27T01:50:18.626Z,37.17
2018-06-27T01:52:47.710Z,29.63
2018-06-27T01:55:16.719Z,30.90
2018-06-27T01:57:45.687Z,28.17
2018-06-27T02:00:14.441Z,26.87
2018-06-27T02:02:43.336Z,29.10
2018-06-27T02:05:12.364Z,28.40
2018-06-27T02:07:41.346Z,25.20
2018-06-27T02:10:10.921Z,28.13
2018-06-27T02:12:39.951Z,28.83
2018-06-27T02:15:08.979Z,27.32
2018-06-27T02:17:38.043Z,29.17
2018-06-27T02:20:07.278Z,24.47
2018-06-27T02:22:36.261Z,27.73
2018-06-27T02:25:05.255Z,28.10
2018-06-27T02:27:34.282Z,24.97
2018-06-27T02:30:03.228Z,30.07
2018-06-27T02:32:32.179Z,32.77
2018-06-27T02:35:01.229Z,26.63
2018-06-27T02:37:30.207Z,29.47
2018-06-27T02:39:59.318Z,22.10
2018-06-27T02:42:28.313Z,26.17
2018-06-27T02:44:57.804Z,22.13
2018-06-27T02:47:26.920Z,22.77
2018-06-27T02:49:56.218Z,23.57
2018-06-27T02:52:25.189Z,24.13
2018-06-27T02:54:54.928Z,25.03
2018-06-27T02:57:23.913Z,26.00
2018-06-27T02:59:52.695Z,25.67
2018-06-27T03:02:21.665Z,19.77
2018-06-27T03:04:50.886Z,27.50
2018-06-27T03:07:20.142Z,24.23
2018-06-27T03:09:49.312Z,20.63
2018-06-27T03:12:18.380Z,25.00
2018-06-27T03:14:47.515Z,24.30
2018-06-27T03:17:16.525Z,15.13
2018-06-27T03:19:46.235Z,20.13
2018-06-27T03:22:15.213Z,20.40
2018-06-27T03:24:44.231Z,19.80
2018-06-27T03:27:13.282Z,17.10
2018-06-27T03:29:42.040Z,20.03
2018-06-27T03:32:10.961Z,19.07
2018-06-27T03:34:40.051Z,15.23
2018-06-27T03:37:09.059Z,18.60
2018-06-27T03:39:38.121Z,16.50
2018-06-27T03:42:07.192Z,15.00
2018-06-27T03:44:36.265Z,16.50
2018-06-27T03:47:05.307Z,21.30
2018-06-27T03:49:34.035Z,21.50
2018-06-27T03:52:02.940Z,18.27
2018-06-27T03:54:31.940Z,20.20
2018-06-27T03:57:00.903Z,19.40
2018-06-27T03:59:29.667Z,17.73
2018-06-27T04:01:58.500Z,15.07
2018-06-27T04:04:27.670Z,21.70
2018-06-27T04:06:56.640Z,20.47
2018-06-27T04:09:26.203Z,25.20
2018-06-27T04:11:55.401Z,21.43
2018-06-27T04:14:24.534Z,20.97
2018-06-27T04:16:54.143Z,18.30
2018-06-27T04:19:23.302Z,24.33
2018-06-27T04:21:52.271Z,20.37
2018-06-27T04:24:21.123Z,19.80
2018-06-27T04:26:50.063Z,17.60
2018-06-27T04:29:19.115Z,19.87
2018-06-27T04:31:48.262Z,21.15
2018-06-27T04:34:17.217Z,20.47
2018-06-27T04:36:46.459Z,19.40
2018-06-27T04:39:15.523Z,16.93
2018-06-27T04:41:44.566Z,15.93
2018-06-27T04:44:13.618Z,16.43
2018-06-27T04:46:42.382Z,20.87
2018-06-27T04:49:11.318Z,21.17
2018-06-27T04:51:40.308Z,18.77
2018-06-27T04:54:09.729Z,20.67
2018-06-27T04:56:38.708Z,19.00
2018-06-27T04:59:07.720Z,19.07
2018-06-27T05:01:36.763Z,18.40
2018-06-27T05:04:05.478Z,21.60
2018-06-27T05:06:34.354Z,21.20
2018-06-27T05:09:04.193Z,24.00
2018-06-27T05:11:33.273Z,22.80
2018-06-27T05:14:02.227Z,20.33
2018-06-27T05:16:31.427Z,15.83
2018-06-27T05:19:00.536Z,14.10
2018-06-27T05:21:30.466Z,21.48
2018-06-27T05:23:59.480Z,17.77
2018-06-27T05:26:28.524Z,16.00
2018-06-27T05:28:57.500Z,15.65
2018-06-27T05:31:27.283Z,22.90
2018-06-27T05:33:56.370Z,20.75
2018-06-27T05:36:26.243Z,20.32
2018-06-27T05:38:55.864Z,18.20
2018-06-27T05:41:24.654Z,19.98
2018-06-27T05:43:53.533Z,22.27
2018-06-27T05:46:22.519Z,23.32
2018-06-27T05:48:53.658Z,33.90
2018-06-27T05:51:22.902Z,18.00
2018-06-27T05:53:52.187Z,26.02
2018-06-27T05:56:21.343Z,18.48
2018-06-27T05:58:50.507Z,18.52
2018-06-27T06:01:19.576Z,15.70
2018-06-27T06:03:48.623Z,20.02
2018-06-27T06:06:17.574Z,17.93
2018-06-27T06:08:46.575Z,18.67
2018-06-27T06:11:15.382Z,20.88
2018-06-27T06:13:44.178Z,16.90
2018-06-27T06:16:12.943Z,16.90
2018-06-27T06:18:41.807Z,16.07
2018-06-27T06:21:10.833Z,20.00
2018-06-27T06:23:39.815Z,15.17
2018-06-27T06:26:09.084Z,16.12
2018-06-27T06:28:37.862Z,19.02
2018-06-27T06:31:06.796Z,15.30
2018-06-27T06:33:35.890Z,17.48
2018-06-27T06:36:05.191Z,16.87
2018-06-27T06:38:34.047Z,16.12
2018-06-27T06:41:02.892Z,18.55
2018-06-27T06:43:31.691Z,15.68
2018-06-27T06:46:01.076Z,18.25
2018-06-27T06:48:30.943Z,16.67
2018-06-27T06:50:59.967Z,17.00
2018-06-27T06:53:29.026Z,21.48
2018-06-27T06:55:57.851Z,15.98
2018-06-27T06:58:26.856Z,19.20
2018-06-27T07:00:55.932Z,18.95
2018-06-27T07:03:25.371Z,16.50
2018-06-27T07:05:54.475Z,15.13
2018-06-27T07:08:23.510Z,20.48
2018-06-27T07:10:52.504Z,17.85
2018-06-27T07:13:21.514Z,19.67
2018-06-27T07:15:50.518Z,18.05
2018-06-27T07:18:19.572Z,15.10
2018-06-27T07:20:48.390Z,14.03
2018-06-27T07:23:17.244Z,17.23
2018-06-27T07:25:46.349Z,16.97
2018-06-27T07:28:15.349Z,14.93
2018-06-27T07:30:44.516Z,14.03
2018-06-27T07:33:13.531Z,15.88
2018-06-27T07:35:42.571Z,13.32
2018-06-27T07:38:11.618Z,15.35
2018-06-27T07:40:40.611Z,13.13
2018-06-27T07:43:09.624Z,11.18
2018-06-27T07:45:38.625Z,11.40
2018-06-27T07:48:07.453Z,9.97
2018-06-27T07:50:36.308Z,12.18
2018-06-27T07:53:05.115Z,11.28
2018-06-27T07:55:34.079Z,11.28
2018-06-27T07:58:03.090Z,9.73
2018-06-27T08:00:32.189Z,8.15
2018-06-27T08:03:01.240Z,11.12
2018-06-27T08:05:30.123Z,9.93
2018-06-27T08:07:59.165Z,7.55
2018-06-27T08:10:28.196Z,10.28
2018-06-27T08:12:57.231Z,9.70
2018-06-27T08:15:26.213Z,9.48
2018-06-27T08:17:55.297Z,13.38
2018-06-27T08:20:24.169Z,9.33
2018-06-27T08:22:53.167Z,10.63
2018-06-27T08:25:22.195Z,10.32
2018-06-27T08:27:51.401Z,11.65
2018-06-27T08:30:20.454Z,13.00
2018-06-27T08:32:49.536Z,11.80
2018-06-27T08:35:18.847Z,9.25
2018-06-27T08:37:48.253Z,11.20
2018-06-27T08:40:17.595Z,11.48
2018-06-27T08:42:46.655Z,11.70
2018-06-27T08:45:15.638Z,10.32
2018-06-27T08:47:45.216Z,13.30
2018-06-27T08:50:14.080Z,12.55
2018-06-27T08:52:42.924Z,13.38
2018-06-27T08:55:12.560Z,8.70
2018-06-27T08:57:41.501Z,9.43
2018-06-27T09:00:10.543Z,12.35
2018-06-27T09:02:39.493Z,10.18
2018-06-27T09:05:08.494Z,8.48
2018-06-27T09:07:37.684Z,8.57
2018-06-27T09:10:06.833Z,9.38
2018-06-27T09:12:35.914Z,14.03
2018-06-27T09:15:05.023Z,6.70
2018-06-27T09:17:34.093Z,5.28
2018-06-27T09:20:03.075Z,4.50
2018-06-27T09:22:32.008Z,5.35
2018-06-27T09:25:00.999Z,5.55
2018-06-27T09:27:29.762Z,4.37
2018-06-27T09:29:58.703Z,4.58
2018-06-27T09:32:27.699Z,3.17
2018-06-27T09:34:56.732Z,6.60
2018-06-27T09:37:25.792Z,4.58
2018-06-27T09:39:54.948Z,5.28
2018-06-27T09:42:24.059Z,3.02
2018-06-27T09:44:53.115Z,4.87
2018-06-27T09:47:22.108Z,3.12
2018-06-27T09:49:51.099Z,3.00
2018-06-27T09:52:20.132Z,4.10
2018-06-27T09:54:48.904Z,3.25
2018-06-27T09:57:17.747Z,4.05
2018-06-27T09:59:46.731Z,4.90
2018-06-27T10:02:15.571Z,7.58
2018-06-27T10:04:44.536Z,4.80
2018-06-27T10:07:13.456Z,4.97
2018-06-27T10:09:42.514Z,5.85
2018-06-27T10:12:11.567Z,4.05
2018-06-27T10:14:40.686Z,4.90
2018-06-27T10:17:09.971Z,5.80
2018-06-27T10:19:39.283Z,4.10
2018-06-27T10:22:08.000Z,4.03
2018-06-27T10:24:36.871Z,2.73
2018-06-27T10:27:05.644Z,3.85
2018-06-27T10:29:34.573Z,5.97
2018-06-27T10:32:03.331Z,3.35
2018-06-27T10:34:32.203Z,3.40
2018-06-27T10:37:01.187Z,6.85
2018-06-27T10:39:30.187Z,5.00
2018-06-27T10:41:59.151Z,4.70
2018-06-27T10:44:28.142Z,3.25
2018-06-27T10:46:57.140Z,4.40
2018-06-27T10:49:26.320Z,3.47
2018-06-27T10:51:55.441Z,3.17
2018-06-27T10:54:24.579Z,2.98
2018-06-27T10:56:53.540Z,3.42
2018-06-27T10:59:22.563Z,1.98
2018-06-27T11:01:51.625Z,2.90
2018-06-27T11:04:20.761Z,2.95
2018-06-27T11:06:49.796Z,3.30
2018-06-27T11:09:18.770Z,2.83
2018-06-27T11:11:47.757Z,3.95
2018-06-27T11:14:16.900Z,3.02
2018-06-27T11:16:45.871Z,3.47
2018-06-27T11:19:14.864Z,2.98
2018-06-27T11:21:45.000Z,3.87
2018-06-27T11:24:14.033Z,2.58
2018-06-27T11:26:43.161Z,3.20
2018-06-27T11:29:12.264Z,5.70
2018-06-27T11:31:41.854Z,2.70
2018-06-27T11:34:10.708Z,4.05
2018-06-27T11:36:39.596Z,4.75
2018-06-27T11:39:10.380Z,4.28
2018-06-27T11:41:39.224Z,2.87
2018-06-27T11:44:08.315Z,4.33
2018-06-27T11:46:38.082Z,4.10
2018-06-27T11:49:07.348Z,2.25
2018-06-27T11:51:36.451Z,4.20
2018-06-27T11:54:05.511Z,2.75
2018-06-27T11:56:35.186Z,3.67
2018-06-27T11:59:04.224Z,2.90
2018-06-27T12:01:33.252Z,3.27
2018-06-27T12:04:02.008Z,1.97
2018-06-27T12:06:31.010Z,2.50
2018-06-27T12:09:00.362Z,2.47
2018-06-27T12:11:29.455Z,2.10
2018-06-27T12:13:58.437Z,3.12
2018-06-27T12:16:27.459Z,3.73
2018-06-27T12:18:57.455Z,3.92
2018-06-27T12:21:26.439Z,2.65
2018-06-27T12:23:55.488Z,3.72
2018-06-27T12:26:24.576Z,2.35
2018-06-27T12:28:53.576Z,4.60
2018-06-27T12:31:22.580Z,3.72
2018-06-27T12:33:51.659Z,3.25
2018-06-27T12:36:20.771Z,4.10
2018-06-27T12:38:49.824Z,3.90
2018-06-27T12:41:18.783Z,3.37
2018-06-27T12:43:47.855Z,2.30
2018-06-27T12:46:16.878Z,6.03
2018-06-27T12:48:45.854Z,3.17
2018-06-27T12:51:14.828Z,2.13
2018-06-27T12:53:43.795Z,5.85
2018-06-27T12:56:12.759Z,3.90
2018-06-27T12:58:41.805Z,2.25
2018-06-27T13:01:10.860Z,3.02
2018-06-27T13:03:39.857Z,2.60
2018-06-27T13:06:09.030Z,1.70
2018-06-27T13:08:38.040Z,3.40
2018-06-27T13:11:07.184Z,3.08
2018-06-27T13:13:36.181Z,2.37
2018-06-27T13:16:05.126Z,4.80
2018-06-27T13:18:33.992Z,1.98
2018-06-27T13:21:02.743Z,1.77
2018-06-27T13:23:31.667Z,3.72
2018-06-27T13:26:00.683Z,2.40
2018-06-27T13:28:29.459Z,1.50
2018-06-27T13:30:58.260Z,2.45
2018-06-27T13:33:27.571Z,2.37
2018-06-27T13:35:57.340Z,2.00
2018-06-27T13:38:26.383Z,2.08
2018-06-27T13:40:55.430Z,2.12
2018-06-27T13:43:24.533Z,2.50
2018-06-27T13:45:53.643Z,2.10
2018-06-27T13:48:22.640Z,2.33
2018-06-27T13:50:52.571Z,4.20
2018-06-27T13:53:21.536Z,3.02
2018-06-27T13:55:50.582Z,4.03
2018-06-27T13:58:19.544Z,4.08
2018-06-27T14:00:48.654Z,2.95
2018-06-27T14:03:17.641Z,1.52
2018-06-27T14:05:46.596Z,2.45
2018-06-27T14:08:15.711Z,3.52
2018-06-27T14:10:44.847Z,3.27
2018-06-27T14:13:13.870Z,3.15
2018-06-27T14:15:42.886Z,2.05
2018-06-27T14:18:11.747Z,3.65
2018-06-27T14:20:40.599Z,2.17
2018-06-27T14:23:09.617Z,1.67
2018-06-27T14:25:38.591Z,1.97
2018-06-27T14:28:08.154Z,3.37
2018-06-27T14:30:37.145Z,2.92
2018-06-27T14:33:06.202Z,2.55
2018-06-27T14:35:35.325Z,2.90
2018-06-27T14:38:04.572Z,3.17
2018-06-27T14:40:33.711Z,2.40
2018-06-27T14:43:02.971Z,2.00
2018-06-27T14:45:31.964Z,1.67
2018-06-27T14:48:00.985Z,1.95
2018-06-27T14:50:30.025Z,4.10
2018-06-27T14:52:59.067Z,2.73
2018-06-27T14:55:27.712Z,2.62
2018-06-27T14:57:56.644Z,2.10
2018-06-27T15:00:25.617Z,3.50
2018-06-27T15:02:54.569Z,2.75
2018-06-27T15:05:23.601Z,5.05
2018-06-27T15:07:52.728Z,6.58
2018-06-27T15:10:21.767Z,2.20
2018-06-27T15:12:51.620Z,2.52
2018-06-27T15:15:20.620Z,3.47
2018-06-27T15:17:49.572Z,3.37
2018-06-27T15:20:18.576Z,1.93
2018-06-27T15:22:47.603Z,2.35
2018-06-27T15:25:16.389Z,2.12
2018-06-27T15:27:45.232Z,2.35
2018-06-27T15:30:14.181Z,4.47
2018-06-27T15:32:43.227Z,4.47
2018-06-27T15:35:12.266Z,2.12
2018-06-27T15:37:41.216Z,1.80
2018-06-27T15:40:10.375Z,2.05
2018-06-27T15:42:39.376Z,1.50
2018-06-27T15:45:08.557Z,2.72
2018-06-27T15:47:37.250Z,1.80
2018-06-27T15:50:06.192Z,1.90
2018-06-27T15:52:35.170Z,2.72
2018-06-27T15:55:04.148Z,3.60
2018-06-27T15:57:33.114Z,2.30
2018-06-27T16:00:02.105Z,1.98
2018-06-27T16:02:31.959Z,2.37
2018-06-27T16:05:00.707Z,3.30
2018-06-27T16:07:29.940Z,2.92
2018-06-27T16:09:58.961Z,3.02
2018-06-27T16:12:28.064Z,2.67
2018-06-27T16:14:56.852Z,2.52
2018-06-27T16:17:26.010Z,2.62
2018-06-27T16:19:54.845Z,2.85
2018-06-27T16:22:23.898Z,2.95
2018-06-27T16:24:52.938Z,3.40
2018-06-27T16:27:21.971Z,1.67
2018-06-27T16:29:51.039Z,2.12
2018-06-27T16:32:19.894Z,1.47
2018-06-27T16:34:49.051Z,2.20
2018-06-27T16:37:18.739Z,1.95
2018-06-27T16:39:47.628Z,2.22
2018-06-27T16:42:16.703Z,1.57
2018-06-27T16:44:45.745Z,1.98
2018-06-27T16:47:14.816Z,2.05
2018-06-27T16:49:43.860Z,2.20
2018-06-27T16:52:13.444Z,2.50
2018-06-27T16:54:42.521Z,2.35
2018-06-27T16:57:11.328Z,2.05
2018-06-27T16:59:40.263Z,2.45
2018-06-27T17:02:09.312Z,2.85
2018-06-27T17:04:38.410Z,4.60
2018-06-27T17:07:07.454Z,2.17
2018-06-27T17:09:37.160Z,2.40
2018-06-27T17:12:06.209Z,2.55
2018-06-27T17:14:36.013Z,4.45
2018-06-27T17:17:05.080Z,2.98
2018-06-27T17:19:34.084Z,3.62
2018-06-27T17:22:03.087Z,3.35
2018-06-27T17:24:32.104Z,4.30
2018-06-27T17:27:01.136Z,2.12
2018-06-27T17:29:30.612Z,2.70
2018-06-27T17:31:59.772Z,1.80
2018-06-27T17:34:28.857Z,3.72
2018-06-27T17:36:57.944Z,3.50
2018-06-27T17:39:26.976Z,3.05
2018-06-27T17:41:56.025Z,2.80
2018-06-27T17:44:25.175Z,2.60
2018-06-27T17:46:54.208Z,2.53
2018-06-27T17:49:23.303Z,3.97
2018-06-27T17:51:53.226Z,3.45
2018-06-27T17:54:22.519Z,2.20
2018-06-27T17:56:51.626Z,3.83
2018-06-27T17:59:20.652Z,3.90
2018-06-27T18:01:50.039Z,3.45
2018-06-27T18:04:19.128Z,4.62
2018-06-27T18:06:48.224Z,3.92
2018-06-27T18:09:17.260Z,3.00
2018-06-27T18:11:46.342Z,2.35
2018-06-27T18:14:15.440Z,4.78
2018-06-27T18:16:44.496Z,2.77
2018-06-27T18:19:13.303Z,3.08
2018-06-27T18:21:42.203Z,2.35
2018-06-27T18:24:11.230Z,3.00
2018-06-27T18:26:40.473Z,2.98
2018-06-27T18:29:10.437Z,3.40
2018-06-27T18:31:39.481Z,3.42
2018-06-27T18:34:08.370Z,3.70
2018-06-27T18:36:37.376Z,3.60
2018-06-27T18:39:08.483Z,2.02
2018-06-27T18:41:39.182Z,3.58
2018-06-27T18:44:08.386Z,5.27
2018-06-27T18:46:37.392Z,3.58
2018-06-27T18:49:06.371Z,3.62
2018-06-27T18:51:39.147Z,3.17
2018-06-27T18:54:08.255Z,2.60
2018-06-27T18:56:37.378Z,5.35
2018-06-27T18:59:06.498Z,4.15
2018-06-27T19:01:35.648Z,3.25
2018-06-27T19:04:04.776Z,3.70
2018-06-27T19:06:34.309Z,4.70
2018-06-27T19:09:05.120Z,4.42
2018-06-27T19:11:34.265Z,4.15
2018-06-27T19:14:03.384Z,5.30
2018-06-27T19:16:32.670Z,4.45
2018-06-27T19:19:01.812Z,4.28
2018-06-27T19:21:30.855Z,3.47
2018-06-27T19:24:00.065Z,3.70
2018-06-27T19:26:29.920Z,3.70
2018-06-27T19:28:59.225Z,4.45
2018-06-27T19:31:28.900Z,3.47
2018-06-27T19:33:58.045Z,3.60
2018-06-27T19:36:27.133Z,3.95
2018-06-27T19:38:56.192Z,4.03
2018-06-27T19:41:25.502Z,2.87
2018-06-27T19:43:55.075Z,3.15
2018-06-27T19:46:24.603Z,3.90
2018-06-27T19:48:53.694Z,4.08
2018-06-27T19:51:22.811Z,4.22
2018-06-27T19:53:51.920Z,3.33
2018-06-27T20:00:11.679Z,4.55
2018-06-27T20:02:40.641Z,2.92
2018-06-27T20:05:09.700Z,3.17
2018-06-27T20:07:39.118Z,4.15
2018-06-27T20:10:08.002Z,2.83
2018-06-27T20:12:37.793Z,3.45
2018-06-27T20:15:06.923Z,3.20
2018-06-27T20:17:35.999Z,2.90
2018-06-27T20:20:05.277Z,2.40
2018-06-27T20:22:34.461Z,3.12
2018-06-27T20:25:03.273Z,3.25
2018-06-27T20:27:31.940Z,3.05
2018-06-27T20:30:00.934Z,3.08
2018-06-27T20:32:30.068Z,3.12
2018-06-27T20:34:59.089Z,3.97
2018-06-27T20:37:28.225Z,3.72
2018-06-27T20:39:57.279Z,4.05
2018-06-27T20:42:26.366Z,4.83
2018-06-27T20:44:55.452Z,3.90
2018-06-27T20:47:24.811Z,2.98
2018-06-27T20:49:53.884Z,3.30
2018-06-27T20:52:23.136Z,3.67
2018-06-27T20:54:52.250Z,3.25
2018-06-27T20:57:21.181Z,4.28
2018-06-27T20:59:50.187Z,4.00
2018-06-27T21:02:19.238Z,3.25
2018-06-27T21:04:48.098Z,3.62
2018-06-27T21:07:17.022Z,3.80
2018-06-27T21:09:45.801Z,4.03
2018-06-27T21:12:14.787Z,3.40
2018-06-27T21:14:43.824Z,3.20
2018-06-27T21:17:12.822Z,4.53
2018-06-27T21:19:41.833Z,3.45
2018-06-27T21:22:10.918Z,4.93
2018-06-27T21:24:40.145Z,3.62
2018-06-27T21:27:09.130Z,3.42
2018-06-27T21:29:38.120Z,3.00
2018-06-27T21:32:07.136Z,2.75
2018-06-27T21:34:36.205Z,3.00
2018-06-27T21:37:05.004Z,3.58
2018-06-27T21:39:33.881Z,2.58
2018-06-27T21:42:02.871Z,3.20
2018-06-27T21:44:32.059Z,3.72
2018-06-27T21:47:01.108Z,3.42
2018-06-27T21:49:31.151Z,6.08
2018-06-27T21:51:59.955Z,3.80
2018-06-27T21:54:28.654Z,2.42
2018-06-27T21:56:57.547Z,3.70
2018-06-27T21:59:26.305Z,2.93
2018-06-27T22:01:55.153Z,3.05
2018-06-27T22:04:24.112Z,3.58
2018-06-27T22:06:53.111Z,4.15
2018-06-27T22:09:22.116Z,3.55
2018-06-27T22:11:51.309Z,3.05
2018-06-27T22:14:20.320Z,4.95
2018-06-27T22:16:49.575Z,3.22
2018-06-27T22:19:19.061Z,4.30
2018-06-27T22:21:48.180Z,2.20
2018-06-27T22:24:17.262Z,3.77
2018-06-27T22:26:46.488Z,3.63
2018-06-27T22:29:15.266Z,3.75
2018-06-27T22:31:44.168Z,4.85
2018-06-27T22:34:13.167Z,3.12
2018-06-27T22:36:42.110Z,4.08
2018-06-27T22:39:12.559Z,3.80
2018-06-27T22:41:41.921Z,4.37
2018-06-27T22:44:11.208Z,4.55
2018-06-27T22:46:40.259Z,6.10
2018-06-27T22:49:09.861Z,5.08
2018-06-27T22:51:38.716Z,4.78
2018-06-27T22:54:07.685Z,3.60
2018-06-27T22:56:36.712Z,3.33
2018-06-27T22:59:05.704Z,5.20
2018-06-27T23:01:34.695Z,4.83
2018-06-27T23:04:03.948Z,4.08
2018-06-27T23:06:32.916Z,4.53
2018-06-27T23:09:01.985Z,4.30
2018-06-27T23:11:31.094Z,3.50
2018-06-27T23:14:00.166Z,4.78
2018-06-27T23:16:29.264Z,7.13
2018-06-27T23:18:58.256Z,5.97
2018-06-27T23:21:27.252Z,5.87
2018-06-27T23:23:56.251Z,4.60
2018-06-27T23:26:25.261Z,4.58
2018-06-27T23:28:54.218Z,3.63
2018-06-27T23:31:23.173Z,5.72
2018-06-27T23:33:51.925Z,4.83
2018-06-27T23:36:20.776Z,4.72
2018-06-27T23:38:49.851Z,4.12
2018-06-27T23:41:19.026Z,6.10
2018-06-27T23:43:48.487Z,3.93
2018-06-27T23:46:17.731Z,4.83
2018-06-27T23:48:46.985Z,5.67
2018-06-27T23:51:16.001Z,3.83
2018-06-27T23:53:45.045Z,4.67
2018-06-27T23:56:14.075Z,4.33
2018-06-27T23:58:43.202Z,4.50
